Time;durP1;ratioP1;P1;durP2;ratioP2;P2;SDS_P1;SDS_P2;PMS_P1;PMS_P2;Temp;Humidity;BMP_temperature;BMP_pressure;BME280_temperature;BME280_humidity;BME280_pressure;Samples;Min_cycle;Max_cycle;Signal;HPM_P1;HPM_P2
2023/12/30 00:00:16;;;;;;;;;;;;;;;9.41;86.42;100062.06;4208820;28;20019;-72
2023/12/30 00:02:18;;;;;;;;;;;;;;;9.34;85.98;100078.16;4208590;28;20015;-73
2023/12/30 00:04:20;;;;;;;;;;;;;;;9.31;86.18;100081.22;4209086;28;20026;-74
2023/12/30 00:06:22;;;;;;;;;;;;;;;9.31;86.63;100085.75;4208781;28;20386;-73
2023/12/30 00:08:24;;;;;;;;;;;;;;;9.26;86.78;100086.31;4210296;28;20457;-73
2023/12/30 00:10:28;;;;;;;;;;;;;;;9.25;87.25;100083.81;4211714;28;20378;-73
2023/12/30 00:12:30;;;;;;;;;;;;;;;9.22;87.77;100081.50;4211491;28;20023;-72
2023/12/30 00:14:33;;;;;;;;;;;;;;;9.24;88.07;100079.44;4211040;28;20015;-73
2023/12/30 00:16:36;;;;;;;;;;;;;;;9.25;87.96;100089.19;4211590;28;20015;-73
2023/12/30 00:18:37;;;;;;;;;;;;;;;9.26;88.27;100093.56;4209143;28;20477;-73
2023/12/30 00:20:39;;;;;;;;;;;;;;;9.24;88.65;100095.63;4210863;28;19928;-73
2023/12/30 00:22:41;;;;;;;;;;;;;;;9.25;88.46;100097.28;4212166;28;20019;-73
2023/12/30 00:24:42;;;;;;;;;;;;;;;9.25;88.94;100097.28;4211516;28;20026;-73
2023/12/30 00:26:44;;;;;;;;;;;;;;;9.23;89.18;100094.75;4212565;28;19988;-73
2023/12/30 00:28:45;;;;;;;;;;;;;;;9.22;89.24;100087.72;4202792;28;20015;-73
2023/12/30 00:30:49;;;;;;;;;;;;;;;9.20;89.25;100090.59;4211213;28;20023;-73
2023/12/30 00:32:51;;;;;;;;;;;;;;;9.20;89.23;100084.38;4211296;28;20036;-73
2023/12/30 00:34:53;;;;;;;;;;;;;;;9.19;89.46;100058.44;4203169;28;20019;-73
2023/12/30 00:36:54;;;;;;;;;;;;;;;9.22;89.45;100049.16;4202773;28;20019;-73
2023/12/30 00:38:57;;;;;;;;;;;;;;;9.20;89.51;100060.13;4220293;28;20069;-73
2023/12/30 00:40:59;;;;;;;;;;;;;;;9.20;89.07;100041.28;4200892;28;20430;-72
2023/12/30 00:43:00;;;;;;;;;;;;;;;9.19;89.29;100035.03;4200756;28;19968;-73
2023/12/30 00:45:03;;;;;;;;;;;;;;;9.21;89.07;100075.25;4204050;28;19976;-73
2023/12/30 00:47:06;;;;;;;;;;;;;;;9.20;89.26;100076.28;4211444;28;19924;-72
2023/12/30 00:49:09;;;;;;;;;;;;;;;9.18;89.00;100084.56;4211952;28;20022;-73
2023/12/30 00:51:11;;;;;;;;;;;;;;;9.24;88.66;100107.22;4210725;28;20007;-73
2023/12/30 00:53:13;;;;;;;;;;;;;;;9.22;88.22;100095.81;4211854;28;19931;-73
2023/12/30 00:55:15;;;;;;;;;;;;;;;9.22;88.53;100092.28;4212172;28;20024;-73
2023/12/30 00:57:17;;;;;;;;;;;;;;;9.21;88.29;100107.59;4212285;28;19959;-73
2023/12/30 00:59:19;;;;;;;;;;;;;;;9.18;88.00;100097.19;4210187;28;20358;-73
2023/12/30 01:01:21;;;;;;;;;;;;;;;9.14;88.07;100112.88;4211084;28;20038;-73
2023/12/30 01:03:25;;;;;;;;;;;;;;;9.14;88.11;100114.75;4209895;28;20028;-74
2023/12/30 01:05:27;;;;;;;;;;;;;;;9.12;87.77;100111.38;4210532;28;20051;-73
2023/12/30 01:07:29;;;;;;;;;;;;;;;9.11;87.87;100107.03;4211635;28;19924;-74
2023/12/30 01:09:31;;;;;;;;;;;;;;;9.08;88.24;100108.22;4210903;28;20015;-74
2023/12/30 01:11:34;;;;;;;;;;;;;;;9.06;88.21;100110.28;4200073;28;20051;-73
2023/12/30 01:13:36;;;;;;;;;;;;;;;9.06;88.06;100114.81;4203267;28;20031;-73
2023/12/30 01:15:38;;;;;;;;;;;;;;;9.06;87.76;100130.97;4211017;28;20419;-72
2023/12/30 01:17:40;;;;;;;;;;;;;;;9.04;87.67;100128.44;4211449;28;20047;-74
2023/12/30 01:19:43;;;;;;;;;;;;;;;9.04;88.08;100124.94;4201392;28;20022;-73
2023/12/30 01:21:45;;;;;;;;;;;;;;;9.03;87.91;100126.81;4219454;28;20374;-73
2023/12/30 01:23:47;;;;;;;;;;;;;;;9.00;88.00;100128.00;4209587;28;20013;-73
2023/12/30 01:25:48;;;;;;;;;;;;;;;9.08;87.80;100137.03;4210060;28;20043;-73
2023/12/30 01:27:50;;;;;;;;;;;;;;;9.05;87.70;100146.31;4211586;28;19924;-72
2023/12/30 01:29:52;;;;;;;;;;;;;;;9.01;87.63;100153.91;4214109;28;20022;-73
2023/12/30 01:31:54;;;;;;;;;;;;;;;9.02;87.76;100165.53;4214021;28;20030;-74
2023/12/30 01:33:56;;;;;;;;;;;;;;;9.00;88.03;100160.31;4214163;28;20019;-74
2023/12/30 01:36:00;;;;;;;;;;;;;;;8.98;88.57;100169.56;4212246;28;20018;-74
2023/12/30 01:38:02;;;;;;;;;;;;;;;8.95;88.72;100167.25;4215891;28;19967;-73
2023/12/30 01:40:03;;;;;;;;;;;;;;;8.95;88.81;100161.84;4215080;28;20010;-73
2023/12/30 01:42:05;;;;;;;;;;;;;;;8.93;89.35;100169.28;4213665;28;20438;-74
2023/12/30 01:44:07;;;;;;;;;;;;;;;8.91;89.26;100182.09;4213189;28;20357;-74
2023/12/30 01:46:10;;;;;;;;;;;;;;;8.92;89.43;100167.59;4220106;28;20389;-74
2023/12/30 01:48:12;;;;;;;;;;;;;;;8.90;89.40;100172.34;4214368;28;19924;-74
2023/12/30 01:50:14;;;;;;;;;;;;;;;8.89;89.50;100170.69;4214095;28;20023;-73
2023/12/30 01:52:17;;;;;;;;;;;;;;;8.88;89.55;100169.00;4213233;28;20036;-74
2023/12/30 01:54:20;;;;;;;;;;;;;;;8.87;89.76;100159.25;4214790;28;20338;-73
2023/12/30 01:56:21;;;;;;;;;;;;;;;8.82;89.67;100163.31;4213949;28;20481;-73
2023/12/30 01:58:23;;;;;;;;;;;;;;;8.82;89.87;100163.31;4213580;28;20350;-74
2023/12/30 02:00:25;;;;;;;;;;;;;;;8.80;89.54;100170.72;4190377;28;20389;-74
2023/12/30 02:02:25;;;;;;;;;;;;;;;8.78;89.52;100172.78;4213882;28;20378;-72
2023/12/30 02:04:27;;;;;;;;;;;;;;;8.77;89.52;100165.69;4215304;28;19924;-72
2023/12/30 02:06:29;;;;;;;;;;;;;;;8.74;89.62;100170.63;4214490;28;20014;-72
2023/12/30 02:08:33;;;;;;;;;;;;;;;8.76;89.46;100168.56;4213757;28;20388;-72
2023/12/30 02:10:36;;;;;;;;;;;;;;;8.74;89.02;100176.81;4212579;28;20011;-73
2023/12/30 02:12:38;;;;;;;;;;;;;;;8.74;88.93;100178.69;4211579;28;20019;-72
2023/12/30 02:14:40;;;;;;;;;;;;;;;8.73;88.82;100177.00;4211827;28;20016;-72
2023/12/30 02:16:42;;;;;;;;;;;;;;;8.74;88.58;100179.50;4214642;28;20040;-71
2023/12/30 02:18:44;;;;;;;;;;;;;;;8.73;88.11;100175.16;4214090;28;20027;-72
2023/12/30 02:20:46;;;;;;;;;;;;;;;8.70;88.21;100167.44;4213693;28;20408;-71
2023/12/30 02:22:49;;;;;;;;;;;;;;;8.71;87.93;100179.03;4213502;28;20477;-72
2023/12/30 02:24:50;;;;;;;;;;;;;;;8.68;87.94;100171.31;4203593;28;20036;-72
2023/12/30 02:26:52;;;;;;;;;;;;;;;8.68;87.70;100168.63;4212572;28;19970;-72
2023/12/30 02:28:54;;;;;;;;;;;;;;;8.64;87.43;100165.47;4213835;28;20023;-72
2023/12/30 02:30:56;;;;;;;;;;;;;;;8.65;87.24;100175.19;4213225;28;20010;-71
2023/12/30 02:32:58;;;;;;;;;;;;;;;8.65;87.16;100180.59;4212863;28;20365;-72
2023/12/30 02:34:59;;;;;;;;;;;;;;;8.63;87.17;100190.69;4214331;28;20023;-72
2023/12/30 02:37:02;;;;;;;;;;;;;;;8.62;87.12;100186.31;4214005;28;20015;-72
2023/12/30 02:39:05;;;;;;;;;;;;;;;8.62;86.92;100197.09;4213479;28;20043;-71
2023/12/30 02:41:06;;;;;;;;;;;;;;;8.62;86.69;100187.19;4202239;28;20035;-72
2023/12/30 02:43:08;;;;;;;;;;;;;;;8.58;86.35;100191.22;4213818;28;20027;-72
2023/12/30 02:45:10;;;;;;;;;;;;;;;8.57;86.22;100194.94;4220658;28;20023;-71
2023/12/30 02:47:11;;;;;;;;;;;;;;;8.56;86.35;100195.13;4203545;28;19967;-71
2023/12/30 02:49:13;;;;;;;;;;;;;;;8.59;86.13;100192.06;4211838;28;20066;-72
2023/12/30 02:51:15;;;;;;;;;;;;;;;8.59;85.92;100184.84;4214437;28;20126;-71
2023/12/30 02:53:17;;;;;;;;;;;;;;;8.57;85.58;100194.94;4213821;28;20022;-71
2023/12/30 02:55:19;;;;;;;;;;;;;;;8.56;85.87;100209.44;4209173;28;20026;-73
2023/12/30 02:57:23;;;;;;;;;;;;;;;8.58;85.67;100199.31;4204807;28;20027;-71
2023/12/30 02:59:25;;;;;;;;;;;;;;;8.56;85.27;100185.19;4213719;28;20714;-72
2023/12/30 03:01:27;;;;;;;;;;;;;;;8.55;85.30;100194.28;4211270;28;20023;-72
2023/12/30 03:03:29;;;;;;;;;;;;;;;8.56;85.12;100209.44;4209557;28;20015;-72
2023/12/30 03:05:32;;;;;;;;;;;;;;;8.56;84.95;100200.53;4211256;28;20047;-72
2023/12/30 03:07:36;;;;;;;;;;;;;;;8.56;84.96;100192.44;4221602;28;20883;-72
2023/12/30 03:09:38;;;;;;;;;;;;;;;8.55;84.62;100204.22;4213390;28;20376;-72
2023/12/30 03:11:42;;;;;;;;;;;;;;;8.55;84.95;100205.03;4209819;28;20026;-71
2023/12/30 03:13:44;;;;;;;;;;;;;;;8.59;84.40;100211.75;4213679;28;20023;-72
2023/12/30 03:15:46;;;;;;;;;;;;;;;8.57;84.41;100204.88;4209129;28;20023;-72
2023/12/30 03:17:49;;;;;;;;;;;;;;;8.52;84.67;100205.41;4208110;28;20019;-71
2023/12/30 03:19:51;;;;;;;;;;;;;;;8.59;84.71;100219.84;4211919;28;20031;-72
2023/12/30 03:21:53;;;;;;;;;;;;;;;8.62;84.44;100216.78;4212566;28;20022;-72
2023/12/30 03:23:55;;;;;;;;;;;;;;;8.56;84.17;100203.22;4202409;28;20015;-72
2023/12/30 03:25:56;;;;;;;;;;;;;;;8.55;84.48;100201.53;4211653;28;20042;-72
2023/12/30 03:27:59;;;;;;;;;;;;;;;8.54;84.31;100205.22;4213150;28;19924;-72
2023/12/30 03:30:02;;;;;;;;;;;;;;;8.52;84.46;100200.00;4210785;28;19981;-72
2023/12/30 03:32:05;;;;;;;;;;;;;;;8.51;84.53;100219.88;4208535;28;20027;-71
2023/12/30 03:34:06;;;;;;;;;;;;;;;8.49;84.55;100203.06;4203805;28;20130;-71
2023/12/30 03:36:08;;;;;;;;;;;;;;;8.51;84.35;100217.19;4212537;28;20011;-71
2023/12/30 03:38:10;;;;;;;;;;;;;;;8.51;84.48;100192.97;4210712;28;20041;-71
2023/12/30 03:40:13;;;;;;;;;;;;;;;8.51;84.10;100206.44;4209607;28;20011;-71
2023/12/30 03:42:14;;;;;;;;;;;;;;;8.47;84.18;100189.78;4211191;28;20483;-72
2023/12/30 03:44:17;;;;;;;;;;;;;;;8.48;84.20;100163.72;4212624;28;20019;-72
2023/12/30 03:46:19;;;;;;;;;;;;;;;8.46;83.94;100142.38;4213639;28;20014;-72
2023/12/30 03:48:21;;;;;;;;;;;;;;;8.46;84.19;100176.50;4211897;28;19928;-72
2023/12/30 03:50:23;;;;;;;;;;;;;;;8.48;84.04;100171.81;4211643;28;19928;-72
2023/12/30 03:52:25;;;;;;;;;;;;;;;8.46;83.99;100166.59;4213133;28;20392;-71
2023/12/30 03:54:27;;;;;;;;;;;;;;;8.43;83.87;100182.19;4210046;28;20690;-71
2023/12/30 03:56:29;;;;;;;;;;;;;;;8.46;84.12;100182.75;4210203;28;20007;-71
2023/12/30 03:58:31;;;;;;;;;;;;;;;8.42;83.69;100196.69;4202357;28;20019;-71
2023/12/30 04:00:34;;;;;;;;;;;;;;;8.46;83.74;100195.34;4206235;28;20027;-71
2023/12/30 04:02:35;;;;;;;;;;;;;;;8.41;83.92;100184.25;4208134;28;20023;-72
2023/12/30 04:04:38;;;;;;;;;;;;;;;8.38;83.87;100188.13;4212464;28;19931;-72
2023/12/30 04:06:40;;;;;;;;;;;;;;;8.32;83.89;100191.50;4210330;28;20018;-72
2023/12/30 04:08:42;;;;;;;;;;;;;;;8.37;83.73;100196.34;4212037;28;20019;-72
2023/12/30 04:10:44;;;;;;;;;;;;;;;8.27;83.51;100196.59;4217333;28;19923;-72
2023/12/30 04:12:45;;;;;;;;;;;;;;;8.26;83.50;100202.97;4211605;28;20015;-72
2023/12/30 04:14:47;;;;;;;;;;;;;;;8.26;83.54;100214.59;4211989;28;19965;-72
2023/12/30 04:16:50;;;;;;;;;;;;;;;8.23;83.26;100203.34;4218280;28;20011;-71
2023/12/30 04:18:52;;;;;;;;;;;;;;;8.24;83.13;100208.53;4203459;28;20023;-71
2023/12/30 04:20:55;;;;;;;;;;;;;;;8.24;82.98;100234.59;4203692;28;20465;-72
2023/12/30 04:22:57;;;;;;;;;;;;;;;8.22;82.87;100220.50;4209689;28;20022;-72
2023/12/30 04:24:58;;;;;;;;;;;;;;;8.23;82.90;100222.19;4211040;28;20469;-72
2023/12/30 04:27:00;;;;;;;;;;;;;;;8.19;82.68;100218.16;4211356;28;20019;-71
2023/12/30 04:29:02;;;;;;;;;;;;;;;8.19;82.31;100229.75;4201344;28;19962;-71
2023/12/30 04:31:04;;;;;;;;;;;;;;;8.17;82.16;100234.47;4211441;28;20465;-71
2023/12/30 04:33:08;;;;;;;;;;;;;;;8.16;82.33;100238.16;4209979;28;20420;-71
2023/12/30 04:35:11;;;;;;;;;;;;;;;8.16;82.12;100235.47;4220940;28;20006;-71
2023/12/30 04:37:13;;;;;;;;;;;;;;;8.13;82.24;100243.88;4219362;28;20071;-72
2023/12/30 04:39:14;;;;;;;;;;;;;;;8.12;81.95;100245.75;4212346;28;20022;-72
2023/12/30 04:41:16;;;;;;;;;;;;;;;8.09;82.17;100245.25;4210760;28;20680;-71
2023/12/30 04:43:19;;;;;;;;;;;;;;;8.07;82.24;100240.06;4210435;28;20015;-71
2023/12/30 04:45:20;;;;;;;;;;;;;;;8.06;82.27;100246.44;4212706;28;20113;-72
2023/12/30 04:47:22;;;;;;;;;;;;;;;8.04;82.59;100251.16;4210511;28;20023;-72
2023/12/30 04:49:24;;;;;;;;;;;;;;;8.04;82.43;100252.97;4208858;28;20031;-72
2023/12/30 04:51:27;;;;;;;;;;;;;;;8.02;81.98;100268.47;4221302;28;19963;-72
2023/12/30 04:53:29;;;;;;;;;;;;;;;8.00;81.97;100259.72;4219071;28;20011;-71
2023/12/30 04:55:31;;;;;;;;;;;;;;;7.98;81.76;100267.97;4211018;28;20016;-71
2023/12/30 04:57:33;;;;;;;;;;;;;;;7.98;81.53;100270.66;4210339;28;20024;-72
2023/12/30 04:59:36;;;;;;;;;;;;;;;7.98;81.54;100272.50;4209852;28;20473;-71
2023/12/30 05:01:37;;;;;;;;;;;;;;;8.00;81.38;100265.13;4207091;28;20388;-71
2023/12/30 05:03:41;;;;;;;;;;;;;;;7.96;81.13;100272.66;4208401;28;20027;-71
2023/12/30 05:05:44;;;;;;;;;;;;;;;7.99;81.01;100274.19;4209975;28;20020;-71
2023/12/30 05:07:45;;;;;;;;;;;;;;;7.99;81.28;100284.94;4211028;28;20019;-71
2023/12/30 05:09:48;;;;;;;;;;;;;;;7.98;80.76;100305.63;4211650;28;19924;-72
2023/12/30 05:11:50;;;;;;;;;;;;;;;7.99;81.06;100309.97;4209415;28;20461;-72
2023/12/30 05:13:52;;;;;;;;;;;;;;;7.94;80.52;100315.03;4211817;28;20023;-72
2023/12/30 05:15:54;;;;;;;;;;;;;;;7.93;80.40;100316.88;4212370;28;20048;-72
2023/12/30 05:17:56;;;;;;;;;;;;;;;7.92;80.02;100292.84;4211661;28;20046;-71
2023/12/30 05:19:57;;;;;;;;;;;;;;;7.95;80.20;100324.78;4210458;28;20374;-72
2023/12/30 05:22:00;;;;;;;;;;;;;;;7.91;79.95;100321.56;4210219;28;19924;-72
2023/12/30 05:24:02;;;;;;;;;;;;;;;7.91;79.77;100332.34;4210280;28;20015;-71
2023/12/30 05:26:04;;;;;;;;;;;;;;;7.92;79.38;100338.56;4211111;28;20011;-72
2023/12/30 05:28:06;;;;;;;;;;;;;;;7.94;79.61;100337.38;4211004;28;21294;-71
2023/12/30 05:30:08;;;;;;;;;;;;;;;7.88;78.87;100337.22;4211947;28;20370;-72
2023/12/30 05:32:10;;;;;;;;;;;;;;;7.88;79.00;100335.38;4212241;28;19935;-71
2023/12/30 05:34:12;;;;;;;;;;;;;;;7.89;78.64;100341.59;4211564;28;20026;-72
2023/12/30 05:36:14;;;;;;;;;;;;;;;7.86;79.04;100332.00;4211048;28;20497;-71
2023/12/30 05:38:17;;;;;;;;;;;;;;;7.83;78.77;100340.41;4211959;28;20023;-72
2023/12/30 05:40:19;;;;;;;;;;;;;;;7.81;78.60;100334.38;4210275;28;20461;-72
2023/12/30 05:42:21;;;;;;;;;;;;;;;7.80;78.73;100356.06;4210041;28;20819;-71
2023/12/30 05:44:22;;;;;;;;;;;;;;;7.78;78.60;100342.78;4209281;28;20015;-71
2023/12/30 05:46:24;;;;;;;;;;;;;;;7.76;78.78;100334.88;4212055;28;20030;-71
2023/12/30 05:48:26;;;;;;;;;;;;;;;7.79;78.66;100340.91;4203594;28;20019;-72
2023/12/30 05:50:28;;;;;;;;;;;;;;;7.78;78.60;100341.94;4211869;28;20465;-72
2023/12/30 05:52:30;;;;;;;;;;;;;;;7.76;78.83;100350.19;4210805;28;20449;-72
2023/12/30 05:54:33;;;;;;;;;;;;;;;7.71;78.42;100364.13;4212264;28;20066;-72
2023/12/30 05:56:35;;;;;;;;;;;;;;;7.69;78.80;100370.66;4212459;28;19956;-72
2023/12/30 05:58:37;;;;;;;;;;;;;;;7.68;78.79;100374.34;4211580;28;20019;-71
2023/12/30 06:00:39;;;;;;;;;;;;;;;7.65;78.91;100374.69;4210972;28;20020;-72
2023/12/30 06:02:41;;;;;;;;;;;;;;;7.62;78.73;100375.88;4202846;28;20018;-73
2023/12/30 06:04:43;;;;;;;;;;;;;;;7.61;79.33;100376.88;4211660;28;20010;-72
2023/12/30 06:06:44;;;;;;;;;;;;;;;7.62;79.07;100391.13;4211869;28;20019;-71
2023/12/30 06:08:46;;;;;;;;;;;;;;;7.57;79.32;100384.44;4211556;28;20015;-73
2023/12/30 06:10:53;;;;;;;;;;;;;;;7.58;79.03;100386.09;4211288;28;20026;-72
2023/12/30 06:12:55;;;;;;;;;;;;;;;7.58;78.99;100399.53;4209588;28;20018;-71
2023/12/30 06:14:57;;;;;;;;;;;;;;;7.54;78.91;100390.16;4210405;28;20543;-72
2023/12/30 06:16:59;;;;;;;;;;;;;;;7.51;79.01;100401.22;4212893;28;19967;-71
2023/12/30 06:19:01;;;;;;;;;;;;;;;7.51;78.96;100395.84;4212754;28;20030;-72
2023/12/30 06:21:04;;;;;;;;;;;;;;;7.48;78.96;100401.56;4215192;28;20131;-72
2023/12/30 06:23:06;;;;;;;;;;;;;;;7.45;78.94;100409.13;4203617;28;20011;-72
2023/12/30 06:25:09;;;;;;;;;;;;;;;7.43;78.80;100406.59;4214721;28;20015;-71
2023/12/30 06:27:12;;;;;;;;;;;;;;;7.42;78.77;100415.66;4214908;28;20022;-72
2023/12/30 06:29:13;;;;;;;;;;;;;;;7.38;79.07;100406.22;4220699;28;20038;-71
2023/12/30 06:31:15;;;;;;;;;;;;;;;7.33;79.08;100420.16;4212596;28;19928;-72
2023/12/30 06:33:17;;;;;;;;;;;;;;;7.34;79.39;100416.47;4214032;28;20441;-72
2023/12/30 06:35:19;;;;;;;;;;;;;;;7.29;78.92;100423.31;4214328;28;20023;-72
2023/12/30 06:37:21;;;;;;;;;;;;;;;7.27;79.19;100425.34;4213914;28;20006;-72
2023/12/30 06:39:23;;;;;;;;;;;;;;;7.26;79.62;100429.00;4213522;28;20027;-72
2023/12/30 06:41:25;;;;;;;;;;;;;;;7.25;79.49;100430.03;4213017;28;20449;-72
2023/12/30 06:43:28;;;;;;;;;;;;;;;7.24;79.32;100425.66;4205131;28;20019;-72
2023/12/30 06:45:29;;;;;;;;;;;;;;;7.20;79.59;100427.84;4210647;28;20396;-71
2023/12/30 06:47:31;;;;;;;;;;;;;;;7.20;78.96;100436.72;4212265;28;19978;-72
2023/12/30 06:49:33;;;;;;;;;;;;;;;7.16;78.93;100434.53;4203192;28;20031;-72
2023/12/30 06:51:35;;;;;;;;;;;;;;;7.14;78.87;100441.91;4212840;28;20036;-71
2023/12/30 06:53:36;;;;;;;;;;;;;;;7.11;78.88;100451.13;4212768;28;20474;-72
2023/12/30 06:55:38;;;;;;;;;;;;;;;7.11;79.17;100445.75;4212167;28;20012;-72
2023/12/30 06:57:39;;;;;;;;;;;;;;;7.10;79.53;100443.22;4213876;28;20023;-71
2023/12/30 06:59:42;;;;;;;;;;;;;;;7.08;79.33;100448.75;4212612;28;20011;-72
2023/12/30 07:01:43;;;;;;;;;;;;;;;7.07;79.25;100455.16;4213433;28;20015;-71
2023/12/30 07:03:45;;;;;;;;;;;;;;;7.08;79.20;100456.81;4212832;28;19924;-72
2023/12/30 07:05:47;;;;;;;;;;;;;;;7.04;79.14;100453.63;4204271;28;19966;-73
2023/12/30 07:07:49;;;;;;;;;;;;;;;7.02;79.25;100461.00;4212850;28;20054;-72
2023/12/30 07:09:50;;;;;;;;;;;;;;;7.01;79.70;100478.13;4211318;28;20023;-73
2023/12/30 07:11:52;;;;;;;;;;;;;;;6.98;79.56;100472.22;4211709;28;19963;-72
2023/12/30 07:13:54;;;;;;;;;;;;;;;6.97;79.29;100481.28;4211473;28;19931;-72
2023/12/30 07:15:57;;;;;;;;;;;;;;;6.95;79.58;100486.81;4208343;28;20027;-72
2023/12/30 07:17:59;;;;;;;;;;;;;;;6.93;79.16;100496.88;4213603;28;20027;-72
2023/12/30 07:20:00;;;;;;;;;;;;;;;6.90;79.65;100494.50;4213302;28;20026;-71
2023/12/30 07:22:03;;;;;;;;;;;;;;;6.91;79.50;100496.19;4212629;28;20022;-72
2023/12/30 07:24:05;;;;;;;;;;;;;;;6.90;79.93;100486.44;4213634;28;20039;-72
2023/12/30 07:26:07;;;;;;;;;;;;;;;6.87;80.03;100494.00;4212595;28;20018;-71
2023/12/30 07:28:09;;;;;;;;;;;;;;;6.87;79.98;100500.19;4212015;28;20011;-72
2023/12/30 07:30:11;;;;;;;;;;;;;;;6.85;80.04;100500.34;4212649;28;20379;-72
2023/12/30 07:32:15;;;;;;;;;;;;;;;6.84;80.10;100503.19;4210191;28;19959;-70
2023/12/30 07:34:17;;;;;;;;;;;;;;;6.82;79.95;100507.88;4211453;28;19986;-72
2023/12/30 07:36:19;;;;;;;;;;;;;;;6.83;80.10;100507.72;4210958;28;20026;-72
2023/12/30 07:38:21;;;;;;;;;;;;;;;6.83;80.45;100515.78;4212731;28;20010;-72
2023/12/30 07:40:24;;;;;;;;;;;;;;;6.82;80.09;100519.47;4209188;28;20016;-72
2023/12/30 07:42:25;;;;;;;;;;;;;;;6.80;80.26;100526.84;4211606;28;20019;-72
2023/12/30 07:44:28;;;;;;;;;;;;;;;6.80;80.14;100534.88;4211425;28;20011;-72
2023/12/30 07:46:29;;;;;;;;;;;;;;;6.83;80.01;100522.97;4213217;28;20023;-71
2023/12/30 07:48:32;;;;;;;;;;;;;;;6.84;80.00;100535.41;4211856;28;20457;-73
2023/12/30 07:50:34;;;;;;;;;;;;;;;6.83;80.28;100545.31;4211299;28;20015;-73
2023/12/30 07:52:35;;;;;;;;;;;;;;;6.84;80.19;100546.16;4212467;28;20027;-72
2023/12/30 07:54:37;;;;;;;;;;;;;;;6.83;80.68;100536.41;4213227;28;19928;-72
2023/12/30 07:56:38;;;;;;;;;;;;;;;6.81;80.89;100555.34;4210990;28;20442;-73
2023/12/30 07:58:41;;;;;;;;;;;;;;;6.82;80.76;100565.09;4210033;28;20020;-72
2023/12/30 08:00:43;;;;;;;;;;;;;;;6.84;80.77;100548.81;4210151;28;20015;-73
2023/12/30 08:02:45;;;;;;;;;;;;;;;6.82;80.65;100565.09;4212244;28;20026;-71
2023/12/30 08:04:48;;;;;;;;;;;;;;;6.85;80.60;100553.22;4202916;28;20454;-71
2023/12/30 08:06:50;;;;;;;;;;;;;;;6.87;80.31;100556.56;4211214;28;20019;-72
2023/12/30 08:08:53;;;;;;;;;;;;;;;6.90;80.00;100574.22;4210850;28;21903;-71
2023/12/30 08:10:54;;;;;;;;;;;;;;;6.91;80.31;100549.03;4210381;28;20011;-71
2023/12/30 08:12:56;;;;;;;;;;;;;;;6.90;80.14;100561.63;4210716;28;20019;-72
2023/12/30 08:14:58;;;;;;;;;;;;;;;6.89;79.92;100561.78;4209970;28;19931;-72
2023/12/30 08:17:01;;;;;;;;;;;;;;;6.89;80.13;100551.88;4211738;28;20015;-71
2023/12/30 08:19:03;;;;;;;;;;;;;;;6.87;80.19;100559.25;4212203;28;20201;-72
2023/12/30 08:21:06;;;;;;;;;;;;;;;6.87;80.08;100559.25;4212022;28;20020;-72
2023/12/30 08:23:08;;;;;;;;;;;;;;;6.87;79.91;100567.31;4211574;28;20823;-72
2023/12/30 08:25:09;;;;;;;;;;;;;;;6.87;80.13;100570.00;4211732;28;20007;-71
2023/12/30 08:27:12;;;;;;;;;;;;;;;6.85;80.09;100577.38;4212620;28;20797;-73
2023/12/30 08:29:14;;;;;;;;;;;;;;;6.84;79.64;100573.81;4211914;28;20039;-73
2023/12/30 08:31:16;;;;;;;;;;;;;;;6.83;80.02;100579.34;4210741;28;20024;-73
2023/12/30 08:33:18;;;;;;;;;;;;;;;6.84;79.95;100586.41;4212044;28;20367;-72
2023/12/30 08:35:20;;;;;;;;;;;;;;;6.84;80.04;100573.00;4211844;28;20458;-73
2023/12/30 08:37:23;;;;;;;;;;;;;;;6.84;80.25;100579.19;4210628;28;20022;-72
2023/12/30 08:39:26;;;;;;;;;;;;;;;6.84;80.02;100591.78;4211366;28;20458;-73
2023/12/30 08:41:28;;;;;;;;;;;;;;;6.85;79.70;100593.47;4209792;28;20036;-74
2023/12/30 08:43:30;;;;;;;;;;;;;;;6.83;79.88;100592.78;4207933;28;20091;-73
2023/12/30 08:45:32;;;;;;;;;;;;;;;6.84;79.48;100603.34;4207311;28;20368;-72
2023/12/30 08:47:35;;;;;;;;;;;;;;;6.84;79.46;100595.31;4209866;28;20011;-73
2023/12/30 08:49:37;;;;;;;;;;;;;;;6.83;79.49;100587.41;4209373;28;20054;-72
2023/12/30 08:51:38;;;;;;;;;;;;;;;6.82;79.55;100604.53;4208112;28;20019;-73
2023/12/30 08:53:41;;;;;;;;;;;;;;;6.82;79.26;100591.09;4208705;28;19986;-73
2023/12/30 08:55:42;;;;;;;;;;;;;;;6.80;79.19;100601.13;4208953;28;19946;-73
2023/12/30 08:57:44;;;;;;;;;;;;;;;6.82;79.83;100602.69;4208374;28;19927;-73
2023/12/30 08:59:48;;;;;;;;;;;;;;;6.82;80.04;100604.53;4207804;28;20010;-73
2023/12/30 09:01:50;;;;;;;;;;;;;;;6.82;79.82;100607.22;4207854;28;20079;-72
2023/12/30 09:03:52;;;;;;;;;;;;;;;6.83;79.61;100606.19;4210443;28;20026;-73
2023/12/30 09:05:53;;;;;;;;;;;;;;;6.85;79.66;100598.84;4201059;28;20023;-72
2023/12/30 09:07:55;;;;;;;;;;;;;;;6.84;79.13;100600.66;4210230;28;20018;-73
2023/12/30 09:09:59;;;;;;;;;;;;;;;6.87;79.15;100607.59;4208535;28;20030;-73
2023/12/30 09:12:01;;;;;;;;;;;;;;;6.85;79.11;100607.72;4208183;28;20377;-72
2023/12/30 09:14:03;;;;;;;;;;;;;;;6.85;79.30;100613.09;4205917;28;20030;-72
2023/12/30 09:16:05;;;;;;;;;;;;;;;6.89;79.13;100618.16;4219092;28;20441;-72
2023/12/30 09:18:08;;;;;;;;;;;;;;;6.92;78.78;100625.91;4205577;28;19924;-72
2023/12/30 09:20:10;;;;;;;;;;;;;;;6.93;78.79;100620.38;4209688;28;20027;-72
2023/12/30 09:22:12;;;;;;;;;;;;;;;6.95;78.75;100622.91;4206983;28;20371;-71
2023/12/30 09:24:14;;;;;;;;;;;;;;;6.97;78.64;100631.63;4199557;28;20375;-72
2023/12/30 09:26:18;;;;;;;;;;;;;;;6.97;78.78;100624.41;4208363;28;19981;-72
2023/12/30 09:28:19;;;;;;;;;;;;;;;6.99;78.49;100635.00;4209261;28;20015;-73
2023/12/30 09:30:21;;;;;;;;;;;;;;;6.99;78.73;100632.31;4209911;28;19928;-73
2023/12/30 09:32:23;;;;;;;;;;;;;;;6.99;78.40;100627.81;4207535;28;20023;-71
2023/12/30 09:34:25;;;;;;;;;;;;;;;7.00;78.21;100650.13;4206314;28;20046;-72
2023/12/30 09:36:28;;;;;;;;;;;;;;;7.02;78.38;100646.31;4209586;28;20357;-71
2023/12/30 09:38:30;;;;;;;;;;;;;;;7.06;78.04;100637.94;4209383;28;20035;-72
2023/12/30 09:40:31;;;;;;;;;;;;;;;7.08;78.34;100636.75;4209085;28;20015;-72
2023/12/30 09:42:34;;;;;;;;;;;;;;;7.11;78.16;100643.66;4209114;28;19931;-73
2023/12/30 09:44:35;;;;;;;;;;;;;;;7.11;78.36;100641.81;4209405;28;20003;-73
2023/12/30 09:46:43;;;;;;;;;;;;;;;7.09;78.40;100656.41;4210952;28;20015;-72
2023/12/30 09:48:46;;;;;;;;;;;;;;;7.13;78.33;100660.47;4209977;28;19928;-73
2023/12/30 09:50:48;;;;;;;;;;;;;;;7.12;78.36;100667.69;4208885;28;20023;-71
2023/12/30 09:52:50;;;;;;;;;;;;;;;7.11;78.03;100671.34;4209958;28;20363;-72
2023/12/30 09:54:55;;;;;;;;;;;;;;;7.16;78.36;100674.44;4213201;28;20035;-71
2023/12/30 09:56:57;;;;;;;;;;;;;;;7.16;78.15;100669.06;4213109;28;20382;-71
2023/12/30 09:59:00;;;;;;;;;;;;;;;7.16;77.90;100674.44;4212102;28;20015;-73
2023/12/30 10:01:05;;;;;;;;;;;;;;;7.18;78.18;100666.22;4209593;28;20011;-72
2023/12/30 10:03:09;;;;;;;;;;;;;;;7.22;78.32;100667.56;4214218;28;20022;-73
2023/12/30 10:05:11;;;;;;;;;;;;;;;7.24;78.31;100668.28;4213589;28;20023;-71
2023/12/30 10:07:22;;;;;;;;;;;;;;;7.26;77.89;100673.47;4214372;28;20437;-72
2023/12/30 10:09:24;;;;;;;;;;;;;;;7.24;77.60;100673.66;4214334;28;20023;-72
2023/12/30 10:11:26;;;;;;;;;;;;;;;7.25;77.72;100677.19;4212621;28;20015;-73
2023/12/30 10:13:28;;;;;;;;;;;;;;;7.25;78.01;100682.56;4211616;28;20019;-73
2023/12/30 10:15:31;;;;;;;;;;;;;;;7.26;77.99;100679.72;4213014;28;20017;-73
2023/12/30 10:17:33;;;;;;;;;;;;;;;7.27;77.74;100680.53;4213542;28;19924;-72
2023/12/30 10:19:37;;;;;;;;;;;;;;;7.27;77.94;100686.75;4212690;28;20370;-73
2023/12/30 10:21:41;;;;;;;;;;;;;;;7.27;77.84;100684.06;4211669;28;20023;-73
2023/12/30 10:23:51;;;;;;;;;;;;;;;7.30;77.86;100688.28;4212700;28;20030;-73
2023/12/30 10:25:52;;;;;;;;;;;;;;;7.30;78.07;100697.19;4204880;28;20027;-72
2023/12/30 10:27:59;;;;;;;;;;;;;;;7.30;78.47;100690.97;4214303;28;20015;-71
2023/12/30 10:30:01;;;;;;;;;;;;;;;7.33;78.34;100694.19;4212138;28;20028;-72
2023/12/30 10:32:08;;;;;;;;;;;;;;;7.32;78.09;100695.19;4213178;28;20018;-72
2023/12/30 10:34:09;;;;;;;;;;;;;;;7.34;78.46;100695.88;4212864;28;20027;-72
2023/12/30 10:36:11;;;;;;;;;;;;;;;7.40;78.75;100710.53;4211834;28;20389;-71